createdAt,value
2022-10-09T00:01:14.666Z,8.80
2022-10-09T00:03:47.720Z,8.70
2022-10-09T00:06:17.671Z,8.70
2022-10-09T00:08:46.002Z,8.70
2022-10-09T00:11:16.336Z,8.60
2022-10-09T00:13:44.919Z,8.50
2022-10-09T00:16:15.170Z,8.50
2022-10-09T00:18:45.408Z,8.40
2022-10-09T00:21:20.601Z,8.40
2022-10-09T00:23:49.502Z,8.30
2022-10-09T00:26:18.283Z,8.30
2022-10-09T00:28:47.143Z,8.30
2022-10-09T00:31:16.509Z,8.20
2022-10-09T00:33:46.035Z,8.20
2022-10-09T00:36:16.085Z,8.10
2022-10-09T00:38:44.370Z,8.10
2022-10-09T00:41:15.902Z,8.20
2022-10-09T00:43:47.319Z,8.20
2022-10-09T00:46:26.647Z,8.20
2022-10-09T00:49:02.751Z,8.10
2022-10-09T00:51:32.336Z,8.10
2022-10-09T00:54:01.225Z,8.10
2022-10-09T00:56:29.604Z,8.10
2022-10-09T00:58:59.220Z,8.10
2022-10-09T01:01:27.879Z,8.10
2022-10-09T01:03:57.260Z,8.10
2022-10-09T01:06:36.905Z,8.00
2022-10-09T01:09:11.059Z,8.00
2022-10-09T01:11:47.120Z,8.00
2022-10-09T01:14:23.304Z,8.00
2022-10-09T01:16:58.625Z,8.10
2022-10-09T01:19:50.393Z,8.00
2022-10-09T01:22:34.076Z,7.90
2022-10-09T01:25:07.276Z,7.90
2022-10-09T01:27:38.133Z,7.90
2022-10-09T01:30:08.904Z,7.80
2022-10-09T01:32:40.227Z,7.90
2022-10-09T01:35:10.577Z,7.90
2022-10-09T01:37:40.213Z,7.80
2022-10-09T01:40:10.346Z,7.80
2022-10-09T01:42:40.046Z,7.80
2022-10-09T01:45:09.012Z,7.80
2022-10-09T01:47:38.861Z,7.80
2022-10-09T01:50:16.849Z,7.90
2022-10-09T01:52:50.593Z,7.90
2022-10-09T01:55:31.483Z,7.80
2022-10-09T01:58:08.140Z,7.80
2022-10-09T02:00:38.925Z,7.60
2022-10-09T02:03:11.539Z,7.60
2022-10-09T02:05:41.989Z,7.40
2022-10-09T02:08:12.730Z,7.30
2022-10-09T02:10:43.319Z,7.20
2022-10-09T02:13:13.633Z,7.20
2022-10-09T02:15:48.628Z,7.20
2022-10-09T02:18:20.778Z,7.30
2022-10-09T02:20:53.371Z,7.30
2022-10-09T02:23:22.838Z,7.30
2022-10-09T02:25:51.612Z,7.30
2022-10-09T02:28:21.782Z,7.30
2022-10-09T02:30:56.343Z,7.50
2022-10-09T02:33:29.061Z,7.40
2022-10-09T02:35:57.145Z,7.40
2022-10-09T02:38:25.135Z,7.30
2022-10-09T02:40:53.163Z,7.40
2022-10-09T02:43:22.413Z,7.30
2022-10-09T02:45:50.480Z,7.40
2022-10-09T02:48:18.421Z,7.50
2022-10-09T02:50:46.462Z,7.40
2022-10-09T02:53:14.387Z,7.30
2022-10-09T02:55:42.412Z,7.40
2022-10-09T02:58:10.368Z,7.40
2022-10-09T03:00:40.434Z,7.30
2022-10-09T03:03:08.451Z,7.30
2022-10-09T03:05:36.440Z,7.40
2022-10-09T03:08:04.600Z,7.20
2022-10-09T03:10:32.786Z,7.30
2022-10-09T03:13:00.816Z,7.20
2022-10-09T03:15:28.880Z,7.30
2022-10-09T03:17:58.214Z,7.30
2022-10-09T03:20:26.303Z,7.30
2022-10-09T03:22:55.179Z,7.30
2022-10-09T03:25:23.161Z,7.30
2022-10-09T03:27:51.121Z,7.30
2022-10-09T03:30:19.118Z,7.30
2022-10-09T03:32:47.388Z,7.30
2022-10-09T03:35:17.025Z,7.40
2022-10-09T03:37:44.968Z,7.40
2022-10-09T03:40:12.965Z,7.40
2022-10-09T03:42:40.898Z,7.50
2022-10-09T03:45:10.067Z,7.60
2022-10-09T03:47:37.953Z,7.60
2022-10-09T03:50:06.851Z,7.60
2022-10-09T03:52:37.229Z,7.60
2022-10-09T03:55:06.292Z,7.50
2022-10-09T03:57:34.309Z,7.50
2022-10-09T04:00:02.332Z,7.40
2022-10-09T04:02:30.451Z,7.40
2022-10-09T04:04:58.486Z,7.40
2022-10-09T04:07:26.438Z,7.40
2022-10-09T04:09:55.928Z,7.40
2022-10-09T04:12:23.897Z,7.40
2022-10-09T04:14:51.923Z,7.60
2022-10-09T04:17:19.887Z,7.40
2022-10-09T04:19:47.906Z,7.40
2022-10-09T04:22:15.874Z,7.40
2022-10-09T04:24:43.851Z,7.40
2022-10-09T04:27:13.175Z,7.40
2022-10-09T04:29:41.224Z,7.30
2022-10-09T04:32:09.256Z,7.30
2022-10-09T04:34:37.204Z,7.30
2022-10-09T04:37:05.194Z,7.40
2022-10-09T04:39:33.223Z,7.30
2022-10-09T04:42:01.222Z,7.30
2022-10-09T04:44:30.541Z,7.40
2022-10-09T04:46:58.537Z,7.40
2022-10-09T04:49:26.795Z,7.50
2022-10-09T04:51:54.666Z,7.60
2022-10-09T04:54:22.727Z,7.50
2022-10-09T04:56:50.620Z,7.50
2022-10-09T04:59:18.586Z,7.50
2022-10-09T05:01:47.986Z,7.60
2022-10-09T05:04:16.102Z,7.60
2022-10-09T05:06:44.098Z,7.70
2022-10-09T05:09:12.103Z,7.70
2022-10-09T05:11:42.652Z,7.60
2022-10-09T05:14:11.627Z,7.60
2022-10-09T05:17:08.303Z,7.60
2022-10-09T05:19:29.537Z,7.50
2022-10-09T05:21:57.528Z,7.60
2022-10-09T05:24:25.485Z,7.60
2022-10-09T05:26:54.013Z,7.50
2022-10-09T05:29:22.136Z,7.50
2022-10-09T05:31:50.190Z,7.50
2022-10-09T05:34:18.219Z,7.60
2022-10-09T05:36:48.719Z,7.50
2022-10-09T05:39:17.655Z,7.40
2022-10-09T05:41:45.618Z,7.40
2022-10-09T05:44:13.626Z,7.40
2022-10-09T05:46:41.705Z,7.30
2022-10-09T05:49:12.128Z,7.40
2022-10-09T05:51:42.801Z,7.50
2022-10-09T05:54:16.167Z,7.40
2022-10-09T05:56:45.223Z,7.40
2022-10-09T05:59:15.063Z,7.40
2022-10-09T06:01:44.549Z,7.50
2022-10-09T06:04:15.407Z,7.60
2022-10-09T06:06:43.822Z,7.40
2022-10-09T06:09:13.240Z,7.50
2022-10-09T06:11:42.438Z,7.30
2022-10-09T06:14:12.628Z,7.30
2022-10-09T06:16:42.453Z,7.30
2022-10-09T06:19:13.063Z,7.30
2022-10-09T06:21:41.564Z,7.20
2022-10-09T06:24:12.370Z,7.30
2022-10-09T06:26:41.767Z,7.20
2022-10-09T06:29:10.624Z,7.20
2022-10-09T06:31:39.143Z,7.20
2022-10-09T06:34:07.100Z,7.20
2022-10-09T06:36:36.790Z,7.30
2022-10-09T06:39:07.261Z,7.40
2022-10-09T06:41:35.915Z,7.40
2022-10-09T06:44:07.758Z,7.40
2022-10-09T06:46:38.031Z,7.30
2022-10-09T06:49:07.213Z,7.30
2022-10-09T06:51:35.919Z,7.30
2022-10-09T06:54:07.298Z,7.30
2022-10-09T06:56:35.261Z,7.50
2022-10-09T06:59:06.239Z,7.50
2022-10-09T07:01:34.917Z,7.50
2022-10-09T07:04:06.864Z,7.50
2022-10-09T07:06:37.851Z,7.40
2022-10-09T07:09:09.131Z,7.20
2022-10-09T07:11:38.505Z,7.30
2022-10-09T07:14:09.601Z,7.30
2022-10-09T07:16:39.002Z,7.50
2022-10-09T07:19:08.480Z,7.70
2022-10-09T07:21:36.935Z,7.80
2022-10-09T07:24:06.288Z,7.70
2022-10-09T07:26:35.813Z,7.70
2022-10-09T07:29:04.827Z,7.70
2022-10-09T07:31:34.185Z,7.90
2022-10-09T07:34:02.318Z,8.00
2022-10-09T07:36:30.289Z,8.20
2022-10-09T07:38:59.775Z,8.30
2022-10-09T07:41:29.225Z,8.40
2022-10-09T07:43:57.782Z,8.60
2022-10-09T07:46:32.132Z,8.50
2022-10-09T07:49:03.318Z,8.60
2022-10-09T07:51:32.470Z,8.70
2022-10-09T07:54:01.952Z,8.80
2022-10-09T07:56:32.036Z,8.90
2022-10-09T07:59:01.748Z,9.10
2022-10-09T08:01:30.909Z,9.30
2022-10-09T08:04:00.175Z,9.40
2022-10-09T08:06:30.327Z,9.50
2022-10-09T08:09:00.466Z,9.40
2022-10-09T08:11:30.050Z,9.60
2022-10-09T08:13:58.108Z,9.90
2022-10-09T08:16:27.244Z,10.20
2022-10-09T08:18:56.928Z,10.70
2022-10-09T08:21:26.022Z,10.80
2022-10-09T08:23:57.174Z,11.10
2022-10-09T08:26:25.855Z,10.80
2022-10-09T08:28:55.377Z,10.90
2022-10-09T08:31:25.079Z,11.50
2022-10-09T08:33:54.689Z,12.00
2022-10-09T08:36:23.324Z,12.40
2022-10-09T08:38:52.212Z,13.00
2022-10-09T08:41:38.362Z,13.10
2022-10-09T08:44:11.649Z,13.40
2022-10-09T08:46:58.400Z,13.80
2022-10-09T08:49:31.985Z,13.90
2022-10-09T08:52:07.952Z,14.30
2022-10-09T08:54:38.950Z,14.70
2022-10-09T08:57:13.461Z,15.20
2022-10-09T08:59:41.531Z,15.70
2022-10-09T09:02:23.769Z,15.50
2022-10-09T09:05:01.222Z,15.60
2022-10-09T09:07:37.930Z,15.40
2022-10-09T09:10:12.932Z,15.50
2022-10-09T09:12:50.115Z,15.80
2022-10-09T09:15:36.043Z,16.10
2022-10-09T09:18:15.384Z,16.40
2022-10-09T09:20:52.210Z,16.40
2022-10-09T09:23:26.249Z,16.90
2022-10-09T09:25:54.349Z,17.20
2022-10-09T09:28:27.492Z,17.80
2022-10-09T09:30:59.539Z,18.70
2022-10-09T09:33:36.734Z,18.70
2022-10-09T09:36:12.077Z,19.20
2022-10-09T09:38:54.371Z,19.90
2022-10-09T09:41:29.032Z,20.50
2022-10-09T09:43:58.439Z,20.90
2022-10-09T09:46:31.150Z,21.10
2022-10-09T09:48:59.203Z,21.30
2022-10-09T09:51:31.297Z,21.40
2022-10-09T09:54:01.467Z,21.50
2022-10-09T09:56:59.774Z,21.70
2022-10-09T09:59:34.663Z,21.80
2022-10-09T10:02:04.979Z,22.00
2022-10-09T10:04:33.962Z,22.10
2022-10-09T10:07:03.266Z,22.10
2022-10-09T10:09:31.916Z,22.40
2022-10-09T10:12:01.606Z,22.20
2022-10-09T10:14:31.708Z,22.10
2022-10-09T10:17:02.057Z,22.00
2022-10-09T10:19:34.866Z,22.10
2022-10-09T10:22:07.334Z,22.10
2022-10-09T10:24:41.584Z,22.10
2022-10-09T10:27:15.176Z,22.30
2022-10-09T10:29:46.646Z,22.50
2022-10-09T10:32:19.263Z,22.50
2022-10-09T10:34:51.826Z,22.60
2022-10-09T10:37:31.713Z,22.70
2022-10-09T10:40:18.916Z,22.90
2022-10-09T10:42:59.825Z,23.00
2022-10-09T10:45:35.460Z,23.20
2022-10-09T10:48:06.186Z,23.10
2022-10-09T10:50:44.175Z,23.10
2022-10-09T10:53:20.527Z,22.30
2022-10-09T10:55:54.198Z,22.10
2022-10-09T10:58:33.475Z,22.20
2022-10-09T11:01:19.814Z,22.40
2022-10-09T11:04:07.939Z,22.40
2022-10-09T11:06:45.256Z,22.50
2022-10-09T11:09:20.742Z,22.10
2022-10-09T11:11:55.680Z,22.20
2022-10-09T11:14:40.252Z,21.80
2022-10-09T11:17:26.536Z,21.60
2022-10-09T11:20:18.276Z,21.60
2022-10-09T11:22:59.924Z,21.60
2022-10-09T11:25:31.648Z,21.60
2022-10-09T11:28:04.175Z,21.70
2022-10-09T11:30:38.312Z,22.10
2022-10-09T11:33:19.543Z,22.30
2022-10-09T11:35:51.397Z,22.10
2022-10-09T11:38:26.625Z,22.00
2022-10-09T11:40:56.740Z,22.20
2022-10-09T11:43:47.119Z,22.20
2022-10-09T11:46:22.398Z,22.30
2022-10-09T11:49:01.462Z,22.30
2022-10-09T11:51:38.198Z,22.90
2022-10-09T11:54:12.066Z,23.20
2022-10-09T11:56:40.056Z,23.50
2022-10-09T11:59:08.607Z,23.70
2022-10-09T12:01:38.968Z,23.90
2022-10-09T12:04:37.443Z,23.80
2022-10-09T12:07:11.211Z,23.90
2022-10-09T12:09:42.876Z,23.90
2022-10-09T12:12:24.006Z,24.00
2022-10-09T12:14:53.699Z,23.50
2022-10-09T12:17:47.575Z,22.60
2022-10-09T12:20:21.382Z,22.60
2022-10-09T12:23:21.277Z,22.20
2022-10-09T12:25:45.550Z,22.20
2022-10-09T12:28:21.459Z,22.40
2022-10-09T12:30:51.526Z,22.60
2022-10-09T12:33:26.769Z,22.80
2022-10-09T12:36:07.232Z,22.80
2022-10-09T12:38:35.270Z,22.40
2022-10-09T12:41:06.680Z,22.30
2022-10-09T12:43:36.354Z,22.20
2022-10-09T12:46:05.081Z,22.20
2022-10-09T12:48:40.288Z,21.80
2022-10-09T12:51:17.713Z,21.70
2022-10-09T12:53:50.740Z,21.90
2022-10-09T12:56:23.793Z,22.20
2022-10-09T12:58:52.950Z,22.30
2022-10-09T13:01:21.884Z,22.20
2022-10-09T13:03:57.569Z,22.30
2022-10-09T13:06:29.513Z,21.70
2022-10-09T13:09:00.370Z,21.40
2022-10-09T13:11:34.909Z,21.20
2022-10-09T13:14:03.091Z,21.10
2022-10-09T13:16:42.141Z,21.40
2022-10-09T13:19:24.719Z,21.40
2022-10-09T13:22:19.749Z,21.50
2022-10-09T13:24:48.491Z,21.50
2022-10-09T13:27:19.423Z,21.70
2022-10-09T13:29:47.662Z,21.50
2022-10-09T13:32:16.843Z,21.40
2022-10-09T13:34:45.521Z,21.60
2022-10-09T13:37:17.295Z,21.70
2022-10-09T13:39:45.260Z,21.90
2022-10-09T13:42:15.514Z,21.50
2022-10-09T13:44:43.762Z,21.20
2022-10-09T13:47:12.481Z,20.20
2022-10-09T13:49:40.501Z,19.80
2022-10-09T13:52:08.498Z,19.40
2022-10-09T13:54:37.920Z,18.90
2022-10-09T13:57:06.082Z,19.10
2022-10-09T13:59:47.410Z,19.30
2022-10-09T14:02:15.432Z,19.70
2022-10-09T14:04:43.562Z,20.10
2022-10-09T14:07:11.670Z,20.20
2022-10-09T14:09:41.079Z,20.30
2022-10-09T14:12:09.372Z,20.20
2022-10-09T14:14:37.362Z,20.30
2022-10-09T14:17:05.310Z,20.10
2022-10-09T14:19:33.333Z,19.70
2022-10-09T14:22:01.300Z,19.50
2022-10-09T14:24:29.296Z,19.50
2022-10-09T14:26:58.657Z,19.60
2022-10-09T14:29:26.642Z,19.60
2022-10-09T14:31:54.603Z,19.60
2022-10-09T14:34:22.734Z,19.40
2022-10-09T14:36:50.858Z,18.80
2022-10-09T14:39:18.848Z,18.70
2022-10-09T14:41:46.902Z,19.00
2022-10-09T14:44:16.378Z,19.40
2022-10-09T14:46:46.763Z,19.80
2022-10-09T14:49:14.803Z,19.80
2022-10-09T14:51:42.906Z,19.90
2022-10-09T14:54:12.670Z,20.00
2022-10-09T14:56:41.285Z,20.20
2022-10-09T14:59:09.275Z,19.90
2022-10-09T15:01:39.556Z,19.80
2022-10-09T15:04:08.274Z,19.70
2022-10-09T15:06:36.418Z,19.60
2022-10-09T15:09:06.234Z,19.60
2022-10-09T15:11:35.870Z,19.60
2022-10-09T15:14:04.478Z,19.50
2022-10-09T15:16:32.433Z,19.40
2022-10-09T15:19:02.089Z,19.20
2022-10-09T15:21:31.902Z,18.90
2022-10-09T15:24:01.798Z,18.90
2022-10-09T15:26:32.847Z,19.00
2022-10-09T15:29:02.864Z,19.00
2022-10-09T15:31:33.613Z,18.80
2022-10-09T15:34:03.445Z,18.90
2022-10-09T15:36:36.077Z,18.60
2022-10-09T15:39:06.111Z,18.60
2022-10-09T15:41:36.314Z,18.40
2022-10-09T15:44:07.433Z,17.90
2022-10-09T15:46:35.730Z,17.70
2022-10-09T15:49:05.046Z,17.40
2022-10-09T15:51:33.314Z,17.40
2022-10-09T15:54:02.008Z,17.10
2022-10-09T15:56:32.302Z,16.90
2022-10-09T15:59:01.902Z,16.90
2022-10-09T16:01:29.969Z,16.80
2022-10-09T16:03:58.478Z,16.70
2022-10-09T16:06:27.790Z,16.60
2022-10-09T16:08:57.408Z,16.70
2022-10-09T16:11:27.015Z,16.50
2022-10-09T16:13:55.872Z,16.50
2022-10-09T16:16:27.286Z,16.40
2022-10-09T16:18:55.321Z,16.40
2022-10-09T16:21:25.298Z,16.20
2022-10-09T16:23:58.727Z,16.00
2022-10-09T16:26:29.198Z,15.90
2022-10-09T16:28:57.322Z,16.00
2022-10-09T16:31:28.100Z,15.80
2022-10-09T16:33:56.321Z,15.70
2022-10-09T16:36:24.521Z,15.70
2022-10-09T16:38:54.212Z,15.70
2022-10-09T16:41:23.663Z,15.60
2022-10-09T16:43:53.215Z,15.70
2022-10-09T16:46:24.042Z,15.40
2022-10-09T16:48:52.830Z,15.30
2022-10-09T16:51:22.856Z,15.20
2022-10-09T16:53:51.441Z,15.10
2022-10-09T16:56:23.114Z,15.10
2022-10-09T16:58:54.466Z,15.10
2022-10-09T17:01:22.633Z,15.20
2022-10-09T17:03:50.782Z,15.20
2022-10-09T17:06:20.464Z,15.20
2022-10-09T17:08:48.799Z,15.20
2022-10-09T17:11:18.182Z,15.20
2022-10-09T17:13:47.970Z,15.20
2022-10-09T17:16:18.609Z,15.20
2022-10-09T17:18:47.639Z,15.10
2022-10-09T17:21:17.236Z,15.30
2022-10-09T17:23:45.510Z,15.40
2022-10-09T17:26:15.238Z,15.40
2022-10-09T17:28:43.830Z,15.40
2022-10-09T17:31:15.325Z,15.40
2022-10-09T17:33:45.995Z,15.30
2022-10-09T17:36:16.524Z,15.30
2022-10-09T17:38:44.901Z,15.20
2022-10-09T17:41:14.859Z,15.20
2022-10-09T17:43:42.837Z,15.10
2022-10-09T17:46:10.919Z,15.20
2022-10-09T17:48:44.426Z,15.10
2022-10-09T17:51:16.094Z,15.10
2022-10-09T17:53:44.182Z,15.20
2022-10-09T17:56:12.708Z,15.10
2022-10-09T17:58:40.672Z,15.00
2022-10-09T18:01:10.660Z,14.90
2022-10-09T18:03:40.534Z,15.00
2022-10-09T18:06:10.495Z,15.00
2022-10-09T18:08:38.997Z,15.10
2022-10-09T18:11:08.983Z,15.10
2022-10-09T18:13:38.112Z,15.10
2022-10-09T18:16:07.230Z,15.00
2022-10-09T18:18:35.853Z,15.00
2022-10-09T18:21:06.737Z,15.00
2022-10-09T18:23:35.497Z,15.00
2022-10-09T18:26:08.079Z,14.90
2022-10-09T18:28:36.217Z,15.00
2022-10-09T18:31:06.796Z,15.00
2022-10-09T18:33:34.768Z,14.90
2022-10-09T18:36:06.813Z,14.80
2022-10-09T18:38:35.305Z,14.90
2022-10-09T18:41:03.538Z,14.80
2022-10-09T18:43:31.563Z,14.80
2022-10-09T18:46:00.731Z,14.80
2022-10-09T18:48:30.639Z,14.70
2022-10-09T18:50:59.141Z,14.70
2022-10-09T18:53:29.556Z,14.60
2022-10-09T18:55:57.634Z,14.50
2022-10-09T18:58:25.671Z,14.40
2022-10-09T19:00:53.720Z,14.40
2022-10-09T19:03:21.788Z,14.60
2022-10-09T19:05:49.719Z,14.50
2022-10-09T19:08:17.696Z,14.50
2022-10-09T19:10:51.954Z,14.50
2022-10-09T19:13:20.673Z,14.60
2022-10-09T19:15:55.078Z,14.60
2022-10-09T19:18:23.616Z,14.60
2022-10-09T19:20:51.582Z,14.60
2022-10-09T19:23:19.841Z,14.60
2022-10-09T19:25:49.602Z,14.60
2022-10-09T19:28:19.522Z,14.60
2022-10-09T19:30:48.155Z,14.70
2022-10-09T19:33:16.395Z,14.70
2022-10-09T19:35:49.334Z,14.70
2022-10-09T19:38:18.050Z,14.50
2022-10-09T19:40:46.453Z,14.50
2022-10-09T19:43:15.793Z,14.50
2022-10-09T19:45:45.228Z,14.50
2022-10-09T19:48:13.329Z,14.30
2022-10-09T19:50:42.400Z,14.30
2022-10-09T19:53:10.634Z,14.30
2022-10-09T19:55:38.982Z,14.30
2022-10-09T19:58:07.700Z,14.30
2022-10-09T20:00:36.013Z,14.30
2022-10-09T20:03:05.406Z,14.30
2022-10-09T20:05:33.868Z,14.30
2022-10-09T20:08:07.629Z,14.20
2022-10-09T20:10:37.422Z,14.20
2022-10-09T20:13:06.104Z,14.30
2022-10-09T20:15:34.152Z,14.50
2022-10-09T20:18:02.125Z,14.50
2022-10-09T20:20:31.431Z,14.50
2022-10-09T20:22:59.411Z,14.40
2022-10-09T20:25:27.726Z,14.30
2022-10-09T20:27:55.818Z,14.20
2022-10-09T20:30:23.817Z,14.20
2022-10-09T20:32:56.693Z,14.20
2022-10-09T20:35:26.793Z,14.10
2022-10-09T20:37:56.211Z,14.10
2022-10-09T20:40:24.225Z,14.10
2022-10-09T20:42:52.962Z,14.10
2022-10-09T20:45:21.406Z,14.20
2022-10-09T20:47:50.248Z,14.30
2022-10-09T20:50:18.378Z,14.30
2022-10-09T20:52:46.424Z,14.30
2022-10-09T20:55:15.971Z,14.20
2022-10-09T20:57:44.105Z,14.20
2022-10-09T21:00:13.147Z,14.20
2022-10-09T21:02:41.206Z,14.10
2022-10-09T21:05:10.190Z,14.10
2022-10-09T21:07:38.133Z,14.20
2022-10-09T21:10:06.986Z,14.10
2022-10-09T21:12:36.347Z,14.10
2022-10-09T21:15:06.908Z,14.10
2022-10-09T21:17:35.103Z,14.00
2022-10-09T21:20:03.407Z,14.00
2022-10-09T21:22:31.387Z,14.10
2022-10-09T21:24:59.316Z,14.00
2022-10-09T21:27:27.316Z,14.00
2022-10-09T21:29:56.588Z,14.00
2022-10-09T21:32:24.556Z,14.00
2022-10-09T21:34:52.540Z,14.00
2022-10-09T21:37:22.115Z,13.90
2022-10-09T21:39:50.434Z,13.90
2022-10-09T21:42:18.417Z,13.90
2022-10-09T21:44:46.400Z,13.90
2022-10-09T21:47:18.719Z,13.90
2022-10-09T21:49:46.784Z,13.80
2022-10-09T21:52:14.707Z,13.90
2022-10-09T21:54:42.653Z,13.80
2022-10-09T21:57:10.602Z,13.80
2022-10-09T21:59:38.544Z,13.80
2022-10-09T22:02:06.575Z,13.80
2022-10-09T22:04:36.596Z,13.80
2022-10-09T22:07:04.687Z,13.80
2022-10-09T22:09:32.650Z,13.80
2022-10-09T22:12:01.227Z,13.80
2022-10-09T22:14:29.195Z,13.80
2022-10-09T22:16:57.126Z,13.70
2022-10-09T22:19:25.086Z,13.70
2022-10-09T22:21:54.386Z,13.70
2022-10-09T22:24:27.116Z,13.70
2022-10-09T22:26:57.272Z,13.70
2022-10-09T22:29:25.386Z,13.70
2022-10-09T22:31:53.397Z,13.70
2022-10-09T22:34:21.368Z,13.70
2022-10-09T22:36:49.426Z,13.70
2022-10-09T22:39:18.758Z,13.60
2022-10-09T22:41:46.783Z,13.50
2022-10-09T22:44:14.730Z,13.50
2022-10-09T22:46:44.468Z,13.50
2022-10-09T22:49:14.608Z,13.50
2022-10-09T22:51:42.949Z,13.40
2022-10-09T22:54:12.492Z,13.20
2022-10-09T22:56:44.038Z,13.10
2022-10-09T22:59:15.935Z,13.10
2022-10-09T23:01:48.146Z,13.10
2022-10-09T23:04:17.926Z,13.00
2022-10-09T23:06:46.947Z,13.00
2022-10-09T23:09:16.149Z,12.90
2022-10-09T23:11:45.828Z,12.80
2022-10-09T23:14:14.224Z,12.90
2022-10-09T23:16:43.016Z,12.70
2022-10-09T23:19:11.671Z,12.70
2022-10-09T23:21:41.430Z,12.60
2022-10-09T23:24:11.498Z,12.50
2022-10-09T23:26:39.704Z,12.50
2022-10-09T23:29:12.927Z,12.40
2022-10-09T23:31:40.835Z,12.40
2022-10-09T23:34:08.863Z,12.40
2022-10-09T23:36:37.140Z,12.40
2022-10-09T23:39:07.385Z,12.40
2022-10-09T23:41:36.082Z,12.30
2022-10-09T23:44:04.437Z,12.40
2022-10-09T23:46:34.449Z,12.30
2022-10-09T23:49:02.656Z,12.40
2022-10-09T23:51:31.553Z,12.40
2022-10-09T23:53:59.762Z,12.40
2022-10-09T23:56:29.342Z,12.40
2022-10-09T23:58:58.690Z,12.40
